Villa Cavazos, Texas
Current Conditions -  °F | °C
As of 9:24 PM on Saturday 20 Dec 2014 (Local Time) from KBRO Reporting Station
Overcast Overcast  
Wind Chill: 57°   Ceiling: 7000
Heat Index: 57°   Visibility: 10mi
Dew Point: 54°   Wind: 8mph
Humidity: 89%   Direction: 350°N
Pressure: 30.12"   Gusts: NA
Location:  26.0002°N, 97.5729°W
Report Text: KBRO 210324Z 35007KT 10SM FEW011 OVC070 14/12 A3012 RMK AO2 T01390122
Loading
Personal Weather Stations






























Interactive Weather Map New forecast layout! Learn more

10-Day Weather Forecast

Advertisements
Track Severe Weather on mobile